Farmland, Indiana
Current Conditions -  °F | °C
As of 6:53 PM on Sunday 23 Nov 2014 (Local Time) from KMIE Reporting Station
Moderate Rain Moderate Rain  
Wind Chill: 53°   Ceiling: 1000
Heat Index: 53°   Visibility: 4mi
Dew Point: 50°   Wind: 13mph
Humidity: 89%   Direction: 140°SE
Pressure: 29.42"   Gusts: 22mph
Location:  40.19°N, 85.13°W
Report Text: KMIE 232353Z 14011G19KT 4SM RA BR BKN010 BKN014 OVC027 12/10 A2942 RMK AO2 SLP960 P0020 60062 T01170100 10144 20111 56055
Loading
Personal Weather Stations






























Interactive Weather Map New forecast layout! Learn more

10-Day Weather Forecast

Advertisements
Track Severe Weather on mobile